Time;durP1;ratioP1;P1;durP2;ratioP2;P2;SDS_P1;SDS_P2;PMS_P1;PMS_P2;Temp;Humidity;BMP_temperature;BMP_pressure;BME280_temperature;BME280_humidity;BME280_pressure;Samples;Min_cycle;Max_cycle;Signal;HPM_P1;HPM_P2
2022/11/14 00:00:30;;;;;;;14.70;9.17;;;2.10;99.90;;;;;;5012359;28;20284;-84
2022/11/14 00:02:59;;;;;;;13.17;8.53;;;2.10;99.90;;;;;;5011959;28;20652;-84
2022/11/14 00:05:25;;;;;;;11.47;8.53;;;2.00;99.90;;;;;;5011684;28;20250;-84
2022/11/14 00:07:51;;;;;;;12.10;9.23;;;2.00;99.90;;;;;;5012161;28;20273;-84
2022/11/14 00:10:17;;;;;;;15.07;9.90;;;2.00;99.90;;;;;;5011849;28;20185;-84
2022/11/14 00:12:42;;;;;;;17.23;9.50;;;2.00;99.90;;;;;;5011660;28;20267;-84
2022/11/14 00:15:09;;;;;;;20.13;10.27;;;1.90;99.90;;;;;;5011591;28;20180;-84
2022/11/14 00:17:35;;;;;;;43.17;12.10;;;1.90;99.90;;;;;;5011612;28;20259;-84
2022/11/14 00:20:00;;;;;;;34.63;11.50;;;2.00;99.90;;;;;;5011569;28;20826;-84
2022/11/14 00:22:26;;;;;;;33.77;11.13;;;1.90;99.90;;;;;;5011845;28;20242;-85
2022/11/14 00:24:51;;;;;;;37.43;11.43;;;1.90;99.90;;;;;;5011410;28;20170;-84
2022/11/14 00:27:17;;;;;;;88.57;16.20;;;1.90;99.90;;;;;;5011576;28;20166;-84
2022/11/14 00:29:43;;;;;;;86.60;12.20;;;1.90;99.90;;;;;;5012919;28;20214;-84
2022/11/14 00:32:08;;;;;;;27.20;10.50;;;1.80;99.90;;;;;;5011519;28;20293;-85
2022/11/14 00:34:34;;;;;;;32.60;10.57;;;1.90;99.90;;;;;;5011057;28;20288;-84
2022/11/14 00:37:00;;;;;;;62.03;10.90;;;1.90;99.90;;;;;;5011869;28;20204;-84
2022/11/14 00:39:26;;;;;;;39.07;9.93;;;1.80;99.90;;;;;;5011420;28;20216;-84
2022/11/14 00:41:51;;;;;;;18.03;9.23;;;1.90;99.90;;;;;;5011591;28;20200;-84
2022/11/14 00:44:18;;;;;;;12.17;8.73;;;1.80;99.90;;;;;;5012705;28;20180;-84
2022/11/14 00:46:43;;;;;;;29.77;9.53;;;1.90;99.90;;;;;;5011494;28;20176;-84
2022/11/14 00:49:09;;;;;;;35.23;10.53;;;1.90;99.90;;;;;;5007055;28;20230;-84
2022/11/14 00:51:36;;;;;;;42.63;10.27;;;1.80;99.90;;;;;;5010816;28;20187;-84
2022/11/14 00:54:01;;;;;;;31.03;10.07;;;1.80;99.90;;;;;;5038684;22;20741;-84
2022/11/14 00:56:27;;;;;;;34.67;10.40;;;1.80;99.90;;;;;;5015715;28;20262;-83
2022/11/14 00:58:53;;;;;;;30.67;10.47;;;1.90;99.90;;;;;;5032342;28;20199;-82
2022/11/14 01:01:19;;;;;;;15.70;8.87;;;1.80;99.90;;;;;;5032356;28;20206;-83
2022/11/14 01:03:51;;;;;;;16.23;8.13;;;1.70;99.90;;;;;;5023302;28;20196;-83
2022/11/14 01:06:18;;;;;;;14.80;8.03;;;1.80;99.90;;;;;;5033870;28;20259;-82
2022/11/14 01:08:44;;;;;;;42.90;10.00;;;1.80;99.90;;;;;;5032217;28;20211;-82
2022/11/14 01:11:16;;;;;;;14.03;7.87;;;1.70;99.90;;;;;;5026645;28;20210;-82
2022/11/14 01:13:42;;;;;;;16.30;8.40;;;1.80;99.90;;;;;;5023837;28;20205;-82
2022/11/14 01:16:08;;;;;;;22.23;8.47;;;1.80;99.90;;;;;;5033960;28;20174;-82
2022/11/14 01:18:35;;;;;;;12.30;8.40;;;1.60;99.90;;;;;;5016218;28;20260;-82
2022/11/14 01:21:05;;;;;;;12.10;8.07;;;1.60;99.90;;;;;;5016139;28;20171;-83
2022/11/14 01:23:31;;;;;;;17.93;8.47;;;1.60;99.90;;;;;;5015513;28;20195;-82
2022/11/14 01:26:02;;;;;;;16.83;7.63;;;1.60;99.90;;;;;;5016084;28;20174;-82
2022/11/14 01:28:28;;;;;;;10.80;7.27;;;1.40;99.90;;;;;;5015877;28;20185;-83
2022/11/14 01:30:53;;;;;;;9.00;6.70;;;1.50;99.90;;;;;;5034252;28;20174;-83
2022/11/14 01:33:19;;;;;;;9.70;7.63;;;1.50;99.90;;;;;;5015783;28;20203;-83
2022/11/14 01:35:44;;;;;;;9.83;7.40;;;1.40;99.90;;;;;;5016142;28;20213;-82
2022/11/14 01:38:13;;;;;;;25.37;8.03;;;1.40;99.90;;;;;;5016522;28;20205;-82
2022/11/14 01:40:44;;;;;;;17.30;7.83;;;1.60;99.90;;;;;;5016754;28;20179;-82
2022/11/14 01:43:15;;;;;;;12.97;7.00;;;1.50;99.90;;;;;;5033945;28;20202;-84
2022/11/14 01:46:16;;;;;;;42.17;8.90;;;1.40;99.90;;;;;;5035311;28;20170;-82
2022/11/14 01:48:49;;;;;;;24.13;7.83;;;1.40;99.90;;;;;;4978586;28;20183;-82
2022/11/14 01:51:23;;;;;;;19.97;7.17;;;1.30;99.90;;;;;;5038065;28;20177;-83
2022/11/14 01:53:53;;;;;;;18.93;7.73;;;1.40;99.90;;;;;;5019546;28;20210;-82
2022/11/14 01:56:25;;;;;;;11.53;6.70;;;1.30;99.90;;;;;;5037862;28;20238;-82
2022/11/14 01:58:57;;;;;;;15.97;7.30;;;1.30;99.90;;;;;;5019357;28;20194;-82
2022/11/14 02:01:24;;;;;;;11.53;7.27;;;1.40;99.90;;;;;;5024686;28;20185;-82
2022/11/14 02:03:51;;;;;;;11.10;7.53;;;1.40;99.90;;;;;;5019613;28;20195;-82
2022/11/14 02:06:20;;;;;;;13.37;7.83;;;1.40;99.90;;;;;;5019931;28;20178;-83
2022/11/14 02:08:48;;;;;;;21.17;7.30;;;1.40;99.90;;;;;;5019882;28;20587;-82
2022/11/14 02:11:14;;;;;;;8.90;6.47;;;1.20;99.90;;;;;;5037827;28;20232;-82
2022/11/14 02:13:39;;;;;;;8.83;7.27;;;1.20;99.90;;;;;;5019550;28;20202;-82
2022/11/14 02:16:05;;;;;;;10.27;6.93;;;1.20;99.90;;;;;;5019921;28;20198;-84
2022/11/14 02:18:31;;;;;;;15.93;7.20;;;1.30;99.90;;;;;;5019777;28;20607;-83
2022/11/14 02:20:56;;;;;;;9.03;6.80;;;1.30;99.90;;;;;;5020142;28;20171;-82
2022/11/14 02:23:27;;;;;;;8.40;6.90;;;1.20;99.90;;;;;;5037092;28;20187;-82
2022/11/14 02:25:53;;;;;;;11.17;6.80;;;1.10;99.90;;;;;;5037556;28;20178;-84
2022/11/14 02:28:20;;;;;;;9.37;6.67;;;1.10;99.90;;;;;;5020107;28;20594;-82
2022/11/14 02:30:46;;;;;;;9.47;7.03;;;1.10;99.90;;;;;;5020259;28;20185;-83
2022/11/14 02:33:12;;;;;;;9.40;7.20;;;1.20;99.90;;;;;;5019787;28;20194;-82
2022/11/14 02:35:37;;;;;;;9.40;6.63;;;1.20;99.90;;;;;;5020214;28;20185;-82
2022/11/14 02:38:03;;;;;;;8.50;6.70;;;1.20;99.90;;;;;;5038099;28;20277;-82
2022/11/14 02:40:28;;;;;;;7.80;6.03;;;1.20;99.90;;;;;;5020268;28;20374;-82
2022/11/14 02:42:54;;;;;;;8.70;6.60;;;1.20;99.90;;;;;;5038461;28;20209;-83
2022/11/14 02:45:19;;;;;;;7.60;5.90;;;1.10;99.90;;;;;;5038796;28;20178;-82
2022/11/14 02:47:45;;;;;;;8.90;6.70;;;1.20;99.90;;;;;;5020974;28;20175;-82
2022/11/14 02:50:11;;;;;;;11.03;7.00;;;1.20;99.90;;;;;;5020275;28;20167;-82
2022/11/14 02:52:37;;;;;;;14.47;6.50;;;1.20;99.90;;;;;;5020830;28;20206;-83
2022/11/14 02:55:03;;;;;;;13.70;7.33;;;1.00;99.90;;;;;;5020466;28;20177;-82
2022/11/14 02:57:29;;;;;;;11.90;7.00;;;1.00;99.90;;;;;;5038402;28;20267;-82
2022/11/14 02:59:55;;;;;;;8.83;6.30;;;1.00;99.90;;;;;;5035730;28;20297;-82
2022/11/14 03:02:20;;;;;;;8.40;6.47;;;1.00;99.90;;;;;;5036950;28;20229;-82
2022/11/14 03:04:46;;;;;;;8.93;6.67;;;1.10;99.90;;;;;;5038994;28;20242;-82
2022/11/14 03:07:11;;;;;;;8.57;6.27;;;1.20;99.90;;;;;;5038349;28;20651;-83
2022/11/14 03:09:37;;;;;;;10.03;7.27;;;1.10;99.90;;;;;;5036323;28;20182;-83
2022/11/14 03:12:02;;;;;;;8.43;6.27;;;1.10;99.90;;;;;;5035328;28;20182;-82
2022/11/14 03:14:30;;;;;;;8.97;5.80;;;1.10;99.90;;;;;;5034424;28;20236;-82
2022/11/14 03:16:55;;;;;;;7.50;5.60;;;1.10;99.90;;;;;;5032256;28;20590;-82
2022/11/14 03:19:21;;;;;;;8.30;5.87;;;1.10;99.90;;;;;;5027125;28;20664;-82
2022/11/14 03:21:46;;;;;;;9.57;6.50;;;1.10;99.90;;;;;;5033439;28;20171;-82
2022/11/14 03:24:12;;;;;;;6.87;5.40;;;1.00;99.90;;;;;;5033115;28;20201;-82
2022/11/14 03:26:37;;;;;;;7.73;6.07;;;1.00;99.90;;;;;;5033470;28;20167;-83
2022/11/14 03:29:03;;;;;;;7.87;5.80;;;1.00;99.90;;;;;;5033116;28;20182;-82
2022/11/14 03:31:29;;;;;;;7.27;5.57;;;1.00;99.90;;;;;;5032257;28;20447;-82
2022/11/14 03:33:54;;;;;;;7.47;5.83;;;1.10;99.90;;;;;;5031893;28;20198;-82
2022/11/14 03:36:20;;;;;;;7.50;5.93;;;1.00;99.90;;;;;;5031790;28;20177;-84
2022/11/14 03:38:46;;;;;;;7.70;6.00;;;1.00;99.90;;;;;;5032979;28;20559;-82
2022/11/14 03:41:12;;;;;;;7.33;5.53;;;1.00;99.90;;;;;;5032141;28;20224;-82
2022/11/14 03:43:38;;;;;;;7.37;5.83;;;1.00;99.90;;;;;;5031649;28;20297;-82
2022/11/14 03:46:03;;;;;;;6.83;5.67;;;1.00;99.90;;;;;;5031844;28;20177;-82
2022/11/14 03:48:29;;;;;;;7.67;5.90;;;1.00;99.90;;;;;;5031808;28;20214;-82
2022/11/14 03:50:55;;;;;;;7.23;6.10;;;0.90;99.90;;;;;;5014958;28;20185;-82
2022/11/14 03:53:22;;;;;;;9.07;6.60;;;1.00;99.90;;;;;;5019782;28;20303;-82
2022/11/14 03:55:48;;;;;;;7.87;5.70;;;0.90;99.90;;;;;;5015064;28;20174;-82
2022/11/14 03:58:13;;;;;;;8.13;6.17;;;1.00;99.90;;;;;;5032872;28;20201;-82
2022/11/14 04:00:39;;;;;;;9.80;6.50;;;1.00;99.90;;;;;;5015333;28;20198;-84
2022/11/14 04:03:04;;;;;;;8.07;6.10;;;0.90;99.90;;;;;;5014987;28;20190;-81
2022/11/14 04:05:30;;;;;;;8.60;6.50;;;0.80;99.90;;;;;;5015251;28;20549;-82
2022/11/14 04:07:56;;;;;;;9.90;6.37;;;0.70;99.90;;;;;;5014489;28;20178;-82
2022/11/14 04:10:21;;;;;;;8.47;6.23;;;0.70;99.90;;;;;;5032955;28;20640;-84
2022/11/14 04:12:51;;;;;;;8.33;6.33;;;0.80;99.90;;;;;;5032711;28;20230;-82
2022/11/14 04:15:18;;;;;;;7.23;5.87;;;0.80;99.90;;;;;;5015063;28;20182;-82
2022/11/14 04:17:44;;;;;;;6.87;5.83;;;0.80;99.90;;;;;;5015092;28;20201;-83
2022/11/14 04:20:11;;;;;;;9.07;6.77;;;0.80;99.90;;;;;;5032260;28;20265;-82
2022/11/14 04:22:37;;;;;;;9.17;6.30;;;0.80;99.90;;;;;;5014565;28;20193;-82
2022/11/14 04:25:03;;;;;;;12.60;6.40;;;0.80;99.90;;;;;;5014486;28;20224;-82
2022/11/14 04:27:28;;;;;;;9.60;6.60;;;0.70;99.90;;;;;;5014661;28;20644;-82
2022/11/14 04:29:54;;;;;;;8.93;6.37;;;0.70;99.90;;;;;;5014902;28;20277;-83
2022/11/14 04:32:20;;;;;;;8.33;6.20;;;0.70;99.90;;;;;;5032215;28;20205;-82
2022/11/14 04:34:45;;;;;;;7.30;5.63;;;0.70;99.90;;;;;;5013852;28;20178;-82
2022/11/14 04:37:11;;;;;;;7.63;6.00;;;0.60;99.90;;;;;;5021183;28;20224;-82
2022/11/14 04:39:36;;;;;;;7.17;5.90;;;0.70;99.90;;;;;;5032987;28;20190;-82
2022/11/14 04:42:02;;;;;;;7.03;5.47;;;0.60;99.90;;;;;;5014917;28;20237;-82
2022/11/14 04:44:27;;;;;;;7.07;5.83;;;0.50;99.90;;;;;;5015194;28;20173;-82
2022/11/14 04:46:53;;;;;;;7.53;5.83;;;0.50;99.90;;;;;;5014914;28;20189;-82
2022/11/14 04:49:19;;;;;;;6.43;5.47;;;0.50;99.90;;;;;;5014943;28;20185;-81
2022/11/14 04:51:44;;;;;;;6.87;5.87;;;0.50;99.90;;;;;;5033008;28;20178;-82
2022/11/14 04:54:10;;;;;;;8.10;5.63;;;0.50;99.90;;;;;;5032493;28;20206;-82
2022/11/14 04:56:35;;;;;;;8.00;5.83;;;0.60;99.90;;;;;;5014985;28;20170;-82
2022/11/14 04:59:01;;;;;;;7.47;5.67;;;0.50;99.90;;;;;;5014991;28;20225;-82
2022/11/14 05:01:27;;;;;;;7.37;5.80;;;0.50;99.90;;;;;;5015220;28;20201;-82
2022/11/14 05:03:52;;;;;;;6.60;5.20;;;0.50;99.90;;;;;;5015056;28;20182;-82
2022/11/14 05:06:18;;;;;;;9.23;5.77;;;0.50;99.90;;;;;;5015089;28;20170;-81
2022/11/14 05:08:43;;;;;;;6.83;5.20;;;0.60;99.90;;;;;;5014936;28;20297;-82
2022/11/14 05:11:17;;;;;;;17.77;6.80;;;0.40;99.90;;;;;;5015390;28;20191;-81
2022/11/14 05:13:43;;;;;;;11.70;6.63;;;0.40;99.90;;;;;;5014881;28;20194;-82
2022/11/14 05:16:09;;;;;;;8.13;5.87;;;0.50;99.90;;;;;;5014930;28;20185;-82
2022/11/14 05:18:35;;;;;;;7.97;5.90;;;0.40;99.90;;;;;;5032613;28;20202;-82
2022/11/14 05:21:01;;;;;;;8.63;5.90;;;0.40;99.90;;;;;;5034490;28;20166;-81
2022/11/14 05:23:27;;;;;;;8.27;5.90;;;0.40;99.90;;;;;;5036273;28;20189;-82
2022/11/14 05:26:05;;;;;;;9.00;6.20;;;0.50;99.90;;;;;;5036960;28;20175;-81
2022/11/14 05:28:30;;;;;;;6.77;5.33;;;0.50;99.90;;;;;;5018737;28;20185;-82
2022/11/14 05:31:07;;;;;;;7.77;6.27;;;0.50;99.90;;;;;;5018380;28;20179;-82
2022/11/14 05:33:34;;;;;;;9.30;5.90;;;0.50;99.90;;;;;;5036178;28;20232;-83
2022/11/14 05:36:11;;;;;;;10.30;6.50;;;0.50;99.90;;;;;;5036585;28;20182;-82
2022/11/14 05:38:37;;;;;;;7.53;5.90;;;0.40;99.90;;;;;;5018671;28;20190;-83
2022/11/14 05:41:07;;;;;;;13.43;6.80;;;0.40;99.90;;;;;;5018421;28;20176;-82
2022/11/14 05:43:33;;;;;;;7.23;5.63;;;0.40;99.90;;;;;;5018192;28;20201;-81
2022/11/14 05:46:04;;;;;;;7.37;5.37;;;0.40;99.90;;;;;;5018751;28;20174;-81
2022/11/14 05:48:31;;;;;;;8.87;6.43;;;0.30;99.90;;;;;;5018606;28;20274;-83
2022/11/14 05:50:58;;;;;;;8.73;5.93;;;0.40;99.90;;;;;;5017631;28;20184;-82
2022/11/14 05:53:25;;;;;;;6.10;4.83;;;0.40;99.90;;;;;;5034261;28;20210;-83
2022/11/14 05:55:51;;;;;;;6.57;5.30;;;0.40;99.90;;;;;;5034860;28;20231;-83
2022/11/14 05:58:16;;;;;;;6.77;5.50;;;0.40;99.90;;;;;;5035906;28;20194;-83
2022/11/14 06:00:42;;;;;;;8.27;5.23;;;0.40;99.90;;;;;;5035131;28;20184;-83
2022/11/14 06:03:08;;;;;;;7.23;4.97;;;0.30;99.90;;;;;;5034192;28;20648;-84
2022/11/14 06:05:35;;;;;;;7.00;5.33;;;0.20;99.90;;;;;;5018244;28;20181;-83
2022/11/14 06:08:02;;;;;;;7.13;5.60;;;0.20;99.90;;;;;;5035540;28;20636;-83
2022/11/14 06:10:28;;;;;;;6.33;5.27;;;0.20;99.90;;;;;;5017771;28;20264;-83
2022/11/14 06:12:53;;;;;;;7.23;5.40;;;0.20;99.90;;;;;;5017807;28;20225;-83
2022/11/14 06:15:19;;;;;;;6.23;5.30;;;0.30;99.90;;;;;;5017801;28;20201;-83
2022/11/14 06:17:45;;;;;;;6.57;5.10;;;0.30;99.90;;;;;;5017675;28;20232;-83
2022/11/14 06:20:14;;;;;;;6.87;5.30;;;0.40;99.90;;;;;;5017509;28;20181;-83
2022/11/14 06:22:40;;;;;;;6.43;5.33;;;0.30;99.90;;;;;;5035656;28;20276;-84
2022/11/14 06:25:06;;;;;;;6.10;4.90;;;0.30;99.90;;;;;;5017391;28;20549;-83
2022/11/14 06:27:32;;;;;;;6.37;5.17;;;0.40;99.90;;;;;;5035456;28;20174;-84
2022/11/14 06:29:57;;;;;;;7.53;4.97;;;0.50;99.90;;;;;;5035388;28;20205;-84
2022/11/14 06:32:23;;;;;;;7.13;4.83;;;0.50;99.90;;;;;;5016695;28;20296;-84
2022/11/14 06:34:48;;;;;;;6.20;4.90;;;0.50;99.90;;;;;;5034915;28;20265;-84
2022/11/14 06:37:14;;;;;;;5.63;4.80;;;0.40;99.90;;;;;;5017358;28;20182;-81
2022/11/14 06:39:40;;;;;;;6.63;5.27;;;0.30;99.90;;;;;;5017323;28;20201;-84
2022/11/14 06:42:05;;;;;;;7.60;4.20;;;0.30;99.90;;;;;;5017589;28;20178;-81
2022/11/14 06:44:31;;;;;;;7.60;5.60;;;0.40;99.90;;;;;;5037151;28;20170;-82
2022/11/14 06:46:56;;;;;;;8.90;5.90;;;0.60;99.90;;;;;;5018922;28;20181;-84
2022/11/14 06:49:23;;;;;;;6.03;5.00;;;0.40;99.90;;;;;;5019514;28;20177;-81
2022/11/14 06:51:49;;;;;;;13.13;10.33;;;0.40;99.90;;;;;;5037057;28;20174;-82
2022/11/14 06:54:15;;;;;;;8.90;6.70;;;0.40;99.90;;;;;;5082565;23;20222;-82
2022/11/14 06:56:41;;;;;;;7.63;5.57;;;0.40;99.90;;;;;;5034264;28;20177;-81
2022/11/14 06:59:06;;;;;;;7.83;6.20;;;0.40;99.90;;;;;;5033076;28;20209;-81
2022/11/14 07:01:32;;;;;;;8.43;6.40;;;0.40;99.90;;;;;;5033133;28;20177;-80
2022/11/14 07:03:59;;;;;;;7.23;5.70;;;0.50;99.90;;;;;;5033994;28;20202;-80
2022/11/14 07:06:26;;;;;;;7.53;5.77;;;0.40;99.90;;;;;;5032867;28;20174;-81
2022/11/14 07:08:53;;;;;;;8.23;6.10;;;0.40;99.90;;;;;;5034195;28;20184;-81
2022/11/14 07:11:25;;;;;;;7.50;6.00;;;0.40;99.90;;;;;;5032887;28;20268;-84
2022/11/14 07:13:52;;;;;;;8.50;6.33;;;0.50;99.90;;;;;;5033965;28;20296;-83
2022/11/14 07:16:19;;;;;;;7.67;5.27;;;0.50;99.90;;;;;;5033826;28;20178;-81
2022/11/14 07:18:45;;;;;;;8.10;6.57;;;0.60;99.90;;;;;;5033819;28;20205;-82
2022/11/14 07:21:12;;;;;;;8.87;6.70;;;0.70;99.90;;;;;;5034220;28;20169;-82
2022/11/14 07:23:38;;;;;;;8.67;6.30;;;0.60;99.90;;;;;;5033381;28;20185;-82
2022/11/14 07:26:05;;;;;;;8.30;5.87;;;0.60;99.90;;;;;;5033643;28;20170;-82
2022/11/14 07:28:32;;;;;;;9.40;7.07;;;0.70;99.90;;;;;;5034376;28;20178;-82
2022/11/14 07:31:01;;;;;;;10.00;7.27;;;0.90;99.90;;;;;;5033844;28;20205;-82
2022/11/14 07:33:26;;;;;;;8.63;6.50;;;1.00;99.90;;;;;;5033615;28;20294;-83
2022/11/14 07:35:52;;;;;;;7.80;6.00;;;0.90;99.90;;;;;;5033798;28;20218;-83
2022/11/14 07:38:17;;;;;;;8.17;6.43;;;0.90;99.90;;;;;;5033608;28;20197;-83
2022/11/14 07:40:52;;;;;;;11.70;7.20;;;0.80;99.90;;;;;;5034976;28;20281;-83
2022/11/14 07:43:17;;;;;;;9.57;6.77;;;0.70;99.90;;;;;;5032319;28;20228;-83
2022/11/14 07:45:43;;;;;;;9.90;6.73;;;0.70;99.90;;;;;;5024739;28;20174;-83
2022/11/14 07:48:08;;;;;;;10.77;6.73;;;0.80;99.90;;;;;;5021370;28;20191;-83
2022/11/14 07:50:34;;;;;;;7.90;5.80;;;0.80;99.90;;;;;;5015154;28;20182;-83
2022/11/14 07:53:00;;;;;;;9.17;7.00;;;0.70;99.90;;;;;;5013217;28;20209;-78
2022/11/14 07:55:25;;;;;;;9.67;7.20;;;0.70;99.90;;;;;;5015112;28;20179;-83
2022/11/14 07:57:54;;;;;;;8.23;6.37;;;0.70;99.90;;;;;;5012607;28;20557;-82
2022/11/14 08:00:20;;;;;;;8.10;6.27;;;0.80;99.90;;;;;;5013648;28;20243;-82
2022/11/14 08:02:46;;;;;;;9.03;6.80;;;0.80;99.90;;;;;;5012585;28;20270;-81
2022/11/14 08:05:13;;;;;;;10.43;6.60;;;1.00;99.90;;;;;;5012657;28;20182;-80
2022/11/14 08:07:38;;;;;;;10.33;7.33;;;1.20;99.90;;;;;;5014070;28;20264;-80
2022/11/14 08:10:04;;;;;;;10.27;7.60;;;1.30;99.90;;;;;;5014380;28;20653;-82
2022/11/14 08:12:30;;;;;;;10.13;7.20;;;1.40;99.90;;;;;;5014660;28;20205;-80
2022/11/14 08:14:55;;;;;;;9.43;7.30;;;1.40;99.90;;;;;;5012607;28;20179;-83
2022/11/14 08:17:22;;;;;;;9.97;7.73;;;1.50;99.90;;;;;;5014287;28;20214;-83
2022/11/14 08:19:47;;;;;;;11.13;8.60;;;1.70;99.90;;;;;;5014096;28;20689;-82
2022/11/14 08:22:13;;;;;;;11.33;7.90;;;1.70;99.90;;;;;;5014085;28;20174;-81
2022/11/14 08:24:38;;;;;;;11.40;7.50;;;1.90;99.90;;;;;;5012581;28;20278;-83
2022/11/14 08:27:04;;;;;;;11.03;8.00;;;2.70;99.90;;;;;;5013623;28;20630;-80
2022/11/14 08:29:29;;;;;;;10.23;7.67;;;3.60;99.90;;;;;;5013486;28;20743;-80
2022/11/14 08:31:55;;;;;;;11.10;7.60;;;4.10;99.90;;;;;;5013893;28;20618;-79
2022/11/14 08:34:22;;;;;;;8.93;6.77;;;4.50;99.90;;;;;;5013338;28;20263;-80
2022/11/14 08:36:48;;;;;;;10.33;7.17;;;4.50;99.90;;;;;;5012249;28;20232;-81
2022/11/14 08:39:13;;;;;;;9.50;7.10;;;4.60;99.90;;;;;;5012234;28;20262;-81
2022/11/14 08:41:39;;;;;;;9.63;7.63;;;4.60;99.90;;;;;;5013462;28;20653;-81
2022/11/14 08:44:05;;;;;;;9.23;7.03;;;4.40;99.90;;;;;;5011776;28;20654;-81
2022/11/14 08:46:30;;;;;;;14.47;10.67;;;4.30;99.90;;;;;;5011701;28;20177;-82
2022/11/14 08:48:56;;;;;;;11.57;7.70;;;4.20;99.90;;;;;;5013183;28;20273;-82
2022/11/14 08:51:21;;;;;;;9.70;7.43;;;4.10;99.90;;;;;;5012980;28;20185;-82
2022/11/14 08:53:47;;;;;;;12.60;8.50;;;4.10;99.90;;;;;;5011733;28;20312;-82
2022/11/14 08:56:12;;;;;;;11.83;8.50;;;4.10;99.90;;;;;;5017268;28;20177;-82
2022/11/14 08:58:38;;;;;;;13.77;9.07;;;4.30;99.90;;;;;;5015940;28;20208;-82
2022/11/14 09:01:06;;;;;;;11.97;8.50;;;4.40;99.90;;;;;;5017125;28;20254;-82
2022/11/14 09:03:32;;;;;;;11.00;8.60;;;4.60;99.90;;;;;;5015529;28;20204;-82
2022/11/14 09:05:58;;;;;;;11.63;8.43;;;4.80;99.90;;;;;;5015595;28;20182;-82
2022/11/14 09:08:24;;;;;;;13.03;9.10;;;4.90;99.90;;;;;;5017050;28;20719;-82
2022/11/14 09:10:50;;;;;;;11.87;8.90;;;5.10;99.90;;;;;;5016968;28;20174;-82
2022/11/14 09:13:16;;;;;;;16.53;11.53;;;5.30;99.90;;;;;;5015563;28;20278;-82
2022/11/14 09:15:42;;;;;;;14.10;10.13;;;5.50;99.90;;;;;;5017041;28;20228;-82
2022/11/14 09:18:08;;;;;;;12.50;9.33;;;5.60;99.90;;;;;;5016623;28;20207;-82
2022/11/14 09:20:34;;;;;;;14.90;10.40;;;5.80;99.90;;;;;;5015394;28;20234;-82
2022/11/14 09:23:00;;;;;;;15.23;11.10;;;5.90;99.90;;;;;;5016966;28;20744;-79
2022/11/14 09:25:26;;;;;;;14.37;10.53;;;6.10;99.90;;;;;;5016830;28;20171;-83
2022/11/14 09:27:52;;;;;;;12.40;9.97;;;6.30;99.90;;;;;;5015705;28;20266;-82
2022/11/14 09:30:18;;;;;;;14.00;9.97;;;6.30;99.90;;;;;;5017060;28;20176;-82
2022/11/14 09:32:44;;;;;;;14.37;10.27;;;6.50;99.90;;;;;;5015737;28;20199;-83
2022/11/14 09:35:11;;;;;;;13.07;10.03;;;6.70;99.90;;;;;;5015418;28;20178;-83
2022/11/14 09:37:37;;;;;;;14.57;10.17;;;6.90;99.90;;;;;;5017159;28;20694;-82
2022/11/14 09:40:03;;;;;;;14.63;10.23;;;6.90;99.90;;;;;;5018078;28;20204;-83
2022/11/14 09:43:07;;;;;;;14.27;10.23;;;7.10;99.90;;;;;;5020299;28;20224;-84
2022/11/14 09:45:38;;;;;;;13.77;10.67;;;7.10;99.90;;;;;;4986136;28;20241;-83
2022/11/14 09:48:17;;;;;;;15.67;10.93;;;7.20;99.90;;;;;;5015221;28;20244;-82
2022/11/14 09:50:50;;;;;;;16.10;10.50;;;7.40;99.90;;;;;;5015540;28;20169;-83
2022/11/14 09:53:22;;;;;;;14.80;10.73;;;7.60;99.90;;;;;;5016801;28;20214;-83
2022/11/14 09:55:47;;;;;;;14.43;9.93;;;7.80;99.90;;;;;;5015353;28;20266;-83
2022/11/14 09:58:19;;;;;;;15.80;11.17;;;7.90;99.90;;;;;;5015513;28;20297;-82
2022/11/14 10:00:57;;;;;;;15.50;11.03;;;8.10;99.90;;;;;;5016776;28;20151;-83
2022/11/14 10:03:58;;;;;;;15.17;10.87;;;8.20;99.90;;;;;;5015210;28;20195;-83
2022/11/14 10:06:38;;;;;;;17.07;11.40;;;8.40;99.90;;;;;;5015763;28;20166;-83
2022/11/14 10:09:23;;;;;;;13.93;10.20;;;8.40;99.90;;;;;;5015490;28;20179;-82
2022/11/14 10:12:00;;;;;;;14.47;10.90;;;8.50;99.90;;;;;;5015244;28;20649;-82
2022/11/14 10:14:45;;;;;;;15.73;10.80;;;8.60;99.90;;;;;;5016489;28;20227;-81
2022/11/14 10:17:44;;;;;;;14.47;10.73;;;8.60;99.90;;;;;;5016664;28;20187;-82
2022/11/14 10:20:22;;;;;;;14.13;10.60;;;8.60;99.90;;;;;;5018296;28;20606;-85
2022/11/14 10:23:07;;;;;;;14.30;10.33;;;8.90;99.90;;;;;;5016833;28;20200;-82
2022/11/14 10:25:35;;;;;;;13.90;9.70;;;9.10;99.90;;;;;;5015296;28;20696;-83
2022/11/14 10:28:23;;;;;;;15.63;10.70;;;9.10;99.90;;;;;;5015020;28;20175;-82
2022/11/14 10:31:03;;;;;;;12.37;9.70;;;9.10;99.90;;;;;;5016579;28;20182;-83
2022/11/14 10:33:45;;;;;;;13.43;10.07;;;9.20;99.90;;;;;;5015616;28;20698;-82
2022/11/14 10:36:39;;;;;;;14.53;10.00;;;9.30;99.90;;;;;;5015626;28;20177;-83
2022/11/14 10:39:28;;;;;;;15.10;10.20;;;9.60;99.90;;;;;;5008396;28;20219;-81
2022/11/14 10:41:59;;;;;;;12.50;9.67;;;9.40;99.90;;;;;;5018677;28;20178;-83
2022/11/14 10:44:31;;;;;;;11.87;9.60;;;9.50;99.90;;;;;;5018923;28;20203;-83
2022/11/14 10:47:02;;;;;;;17.47;13.00;;;9.60;99.90;;;;;;5020943;28;20163;-85
2022/11/14 10:49:34;;;;;;;15.20;12.10;;;10.00;99.90;;;;;;5033399;28;20187;-84
2022/11/14 10:52:03;;;;;;;13.90;10.73;;;10.20;99.90;;;;;;5038554;28;20175;-83
2022/11/14 10:54:38;;;;;;;14.40;10.90;;;10.50;99.90;;;;;;5021018;28;20215;-84
2022/11/14 10:57:16;;;;;;;13.07;9.70;;;10.80;99.90;;;;;;5021765;28;20261;-84
2022/11/14 10:59:42;;;;;;;11.27;8.90;;;11.20;99.90;;;;;;5020218;28;20206;-84
2022/11/14 11:02:08;;;;;;;9.30;7.70;;;11.40;99.90;;;;;;5022454;28;20182;-84
2022/11/14 11:04:36;;;;;;;8.90;7.53;;;11.70;99.90;;;;;;5022275;28;20195;-85
2022/11/14 11:07:08;;;;;;;10.03;7.50;;;11.40;99.90;;;;;;5016957;28;20183;-85
2022/11/14 11:12:23;;;;;;;7.57;6.13;;;11.00;99.90;;;;;;5014249;28;20198;-86
2022/11/14 11:15:13;;;;;;;8.00;6.67;;;11.10;99.90;;;;;;5014262;28;20189;-88
2022/11/14 11:17:55;;;;;;;8.13;6.50;;;11.20;99.90;;;;;;5013522;28;20221;-86
2022/11/14 11:20:34;;;;;;;7.80;6.20;;;11.20;99.90;;;;;;5013895;28;20166;-88
2022/11/14 11:23:09;;;;;;;7.07;6.10;;;11.30;99.90;;;;;;5014167;28;20565;-84
2022/11/14 11:25:36;;;;;;;8.00;6.10;;;11.40;99.90;;;;;;5013019;28;20166;-86
2022/11/14 11:28:06;;;;;;;8.23;6.60;;;11.80;99.90;;;;;;5013142;28;20225;-84
2022/11/14 11:30:32;;;;;;;8.13;6.27;;;12.10;99.90;;;;;;5013524;28;20238;-83
2022/11/14 11:33:19;;;;;;;7.93;5.80;;;12.20;99.90;;;;;;5015257;28;20233;-84
2022/11/14 11:35:48;;;;;;;8.17;5.70;;;12.20;99.90;;;;;;5014492;28;20163;-83
2022/11/14 11:38:14;;;;;;;11.10;9.20;;;12.30;99.90;;;;;;5015518;28;20680;-83
2022/11/14 11:40:43;;;;;;;18.67;14.03;;;12.40;99.90;;;;;;5016287;28;20535;-83
2022/11/14 11:43:32;;;;;;;7.97;6.70;;;12.90;99.90;;;;;;5017152;28;20195;-83
2022/11/14 11:46:03;;;;;;;9.13;6.43;;;12.90;99.90;;;;;;5016731;28;20179;-83
2022/11/14 11:48:36;;;;;;;6.47;4.50;;;13.20;99.90;;;;;;5016332;28;20171;-83
2022/11/14 11:51:05;;;;;;;8.93;6.57;;;12.90;99.90;;;;;;5027725;28;20178;-83
2022/11/14 11:53:35;;;;;;;4.27;3.70;;;12.90;99.90;;;;;;5022319;28;20626;-84
2022/11/14 11:56:10;;;;;;;4.07;3.67;;;12.80;99.90;;;;;;5037882;28;20175;-83
2022/11/14 11:58:50;;;;;;;4.90;3.80;;;12.80;99.90;;;;;;5037919;28;20217;-83
2022/11/14 12:01:17;;;;;;;4.37;3.60;;;12.80;99.90;;;;;;5037062;28;20189;-84
2022/11/14 12:03:47;;;;;;;3.60;3.17;;;13.00;99.90;;;;;;5036681;28;20217;-83
2022/11/14 12:06:15;;;;;;;3.80;3.40;;;13.20;99.90;;;;;;5037125;28;20544;-84
2022/11/14 12:08:53;;;;;;;3.97;3.47;;;13.10;99.90;;;;;;5038786;28;20250;-84
2022/11/14 12:11:22;;;;;;;3.70;3.37;;;12.70;99.90;;;;;;5037129;28;20257;-83
2022/11/14 12:14:25;;;;;;;3.67;3.37;;;12.30;99.90;;;;;;5037913;28;20614;-83
2022/11/14 12:17:15;;;;;;;3.80;3.00;;;12.10;99.90;;;;;;5037958;28;20209;-83
2022/11/14 12:19:56;;;;;;;3.47;3.00;;;11.90;99.90;;;;;;5031872;28;20182;-85
2022/11/14 12:22:42;;;;;;;4.07;2.60;;;11.90;99.90;;;;;;5038710;28;20249;-84
2022/11/14 12:25:36;;;;;;;3.60;2.37;;;11.90;99.90;;;;;;5039358;28;20162;-83
2022/11/14 12:28:08;;;;;;;2.57;2.37;;;12.20;99.90;;;;;;5039411;28;20299;-84
2022/11/14 12:30:35;;;;;;;2.57;2.30;;;12.70;99.90;;;;;;5038818;28;20194;-84
2022/11/14 12:33:12;;;;;;;2.40;2.20;;;12.70;99.90;;;;;;5039276;28;20186;-81
2022/11/14 12:35:52;;;;;;;2.63;2.33;;;12.40;99.90;;;;;;5041822;28;20251;-84
2022/11/14 12:38:19;;;;;;;2.73;2.23;;;12.50;99.90;;;;;;5038155;28;20320;-83
2022/11/14 12:41:06;;;;;;;2.57;2.20;;;12.60;99.90;;;;;;5034965;28;20285;-83
2022/11/14 12:43:39;;;;;;;3.17;2.20;;;12.70;99.90;;;;;;5033458;28;20194;-83
2022/11/14 12:46:08;;;;;;;2.87;2.17;;;13.00;99.90;;;;;;5033825;28;20174;-83
2022/11/14 12:48:36;;;;;;;2.90;2.03;;;13.20;99.90;;;;;;5035721;28;20246;-82
2022/11/14 12:51:04;;;;;;;5.67;2.70;;;13.20;99.90;;;;;;5032774;28;20599;-84
2022/11/14 12:53:36;;;;;;;4.70;4.20;;;13.00;99.90;;;;;;5061438;22;20233;-86
2022/11/14 12:56:20;;;;;;;2.60;2.30;;;13.10;99.90;;;;;;5050730;28;20173;-83
2022/11/14 12:59:20;;;;;;;2.50;2.30;;;13.20;99.90;;;;;;5042287;28;20683;-82
2022/11/14 13:01:51;;;;;;;2.80;2.13;;;13.60;99.90;;;;;;5042446;28;20173;-83